createdAt,value
2023-01-17T00:01:13.152Z,4.60
2023-01-17T00:06:35.302Z,4.57
2023-01-17T00:11:38.817Z,4.57
2023-01-17T00:16:42.547Z,4.56
2023-01-17T00:22:04.689Z,4.55
2023-01-17T00:27:14.448Z,4.56
2023-01-17T00:32:17.763Z,4.53
2023-01-17T00:37:21.286Z,4.54
2023-01-17T00:42:24.900Z,4.51
2023-01-17T00:47:47.149Z,4.49
2023-01-17T00:53:09.415Z,4.48
2023-01-17T00:58:31.762Z,4.47
2023-01-17T01:03:54.225Z,4.46
2023-01-17T01:09:16.477Z,4.45
2023-01-17T01:14:38.423Z,4.45
2023-01-17T01:20:00.599Z,4.45
2023-01-17T01:25:23.137Z,4.44
2023-01-17T01:30:45.399Z,4.44
2023-01-17T01:35:54.035Z,4.42
2023-01-17T01:40:57.547Z,4.42
2023-01-17T01:46:01.647Z,4.41
2023-01-17T01:51:10.219Z,4.41
2023-01-17T01:56:15.675Z,4.34
2023-01-17T02:01:19.812Z,4.32
2023-01-17T02:06:32.939Z,4.32
2023-01-17T02:11:40.970Z,4.32
2023-01-17T02:16:51.849Z,4.31
2023-01-17T02:22:07.552Z,4.31
2023-01-17T02:27:25.919Z,4.31
2023-01-17T02:32:52.167Z,4.29
2023-01-17T02:38:33.265Z,4.28
2023-01-17T02:43:37.900Z,4.27
2023-01-17T02:48:42.368Z,4.28
2023-01-17T02:53:48.719Z,4.27
2023-01-17T02:59:10.773Z,4.23
2023-01-17T03:04:21.560Z,4.23
2023-01-17T03:09:26.649Z,4.20
2023-01-17T03:14:33.605Z,4.16
2023-01-17T03:19:37.016Z,4.17
2023-01-17T03:24:41.047Z,4.15
2023-01-17T03:29:44.462Z,4.10
2023-01-17T03:34:47.977Z,4.07
2023-01-17T03:39:51.590Z,4.03
2023-01-17T03:44:55.116Z,3.98
2023-01-17T03:49:58.732Z,3.94
2023-01-17T03:55:03.060Z,3.92
2023-01-17T04:00:07.219Z,3.89
2023-01-17T04:05:10.707Z,3.88
2023-01-17T04:10:14.224Z,3.87
2023-01-17T04:15:18.148Z,3.85
2023-01-17T04:20:33.859Z,3.82
2023-01-17T04:25:37.676Z,3.83
2023-01-17T04:30:41.246Z,3.82
2023-01-17T04:35:44.701Z,3.80
2023-01-17T04:40:48.939Z,3.82
2023-01-17T04:45:59.009Z,3.88
2023-01-17T04:51:04.423Z,3.88
2023-01-17T04:56:08.290Z,3.88
2023-01-17T05:01:11.799Z,3.87
2023-01-17T05:06:15.935Z,3.86
2023-01-17T05:11:19.445Z,3.86
2023-01-17T05:16:22.966Z,3.86
2023-01-17T05:21:26.681Z,3.85
2023-01-17T05:26:30.298Z,3.86
2023-01-17T05:31:33.827Z,3.89
2023-01-17T05:36:37.334Z,3.90
2023-01-17T05:41:40.948Z,3.94
2023-01-17T05:46:44.463Z,3.93
2023-01-17T05:51:48.184Z,3.94
2023-01-17T05:56:51.699Z,3.96
2023-01-17T06:01:55.114Z,3.98
2023-01-17T06:06:58.731Z,4.00
2023-01-17T06:12:02.266Z,4.01
2023-01-17T06:17:05.861Z,4.03
2023-01-17T06:22:09.585Z,4.07
2023-01-17T06:27:13.001Z,4.10
2023-01-17T06:32:16.721Z,4.14
2023-01-17T06:37:20.133Z,4.18
2023-01-17T06:42:23.868Z,4.25
2023-01-17T06:47:27.364Z,4.28
2023-01-17T06:52:30.987Z,4.32
2023-01-17T06:57:34.703Z,4.41
2023-01-17T07:02:38.423Z,4.46
2023-01-17T07:07:42.042Z,4.54
2023-01-17T07:12:45.772Z,4.60
2023-01-17T07:17:49.277Z,4.70
2023-01-17T07:22:52.796Z,4.77
2023-01-17T07:27:58.003Z,4.85
2023-01-17T07:33:04.435Z,4.93
2023-01-17T07:38:11.659Z,5.02
2023-01-17T07:43:15.161Z,5.06
2023-01-17T07:48:20.712Z,5.07
2023-01-17T07:53:26.243Z,5.10
2023-01-17T07:58:29.798Z,5.12
2023-01-17T08:03:36.832Z,5.11
2023-01-17T08:08:40.422Z,5.17
2023-01-17T08:13:44.024Z,5.24
2023-01-17T08:18:47.540Z,5.35
2023-01-17T08:23:52.594Z,5.43
2023-01-17T08:29:00.759Z,5.47
2023-01-17T08:34:04.742Z,5.52
2023-01-17T08:39:08.160Z,5.56
2023-01-17T08:44:49.098Z,5.59
2023-01-17T08:49:52.977Z,5.67
2023-01-17T08:54:56.692Z,5.77
2023-01-17T09:00:00.181Z,5.90
2023-01-17T09:05:04.031Z,6.11
2023-01-17T09:10:07.962Z,6.33
2023-01-17T09:15:14.842Z,6.42
2023-01-17T09:20:18.370Z,6.33
2023-01-17T09:25:22.602Z,6.25
2023-01-17T09:30:26.372Z,6.28
2023-01-17T09:35:30.146Z,6.38
2023-01-17T09:40:34.577Z,6.43
2023-01-17T09:45:37.851Z,6.49
2023-01-17T09:50:53.700Z,6.56
2023-01-17T09:56:10.008Z,6.62
2023-01-17T10:01:28.617Z,6.77
2023-01-17T10:07:18.188Z,6.87
2023-01-17T10:12:47.903Z,6.89
2023-01-17T10:18:01.657Z,7.00
2023-01-17T10:23:29.962Z,7.21
2023-01-17T10:28:36.029Z,7.29
2023-01-17T10:34:19.282Z,7.24
2023-01-17T10:39:26.584Z,7.20
2023-01-17T10:44:56.820Z,7.11
2023-01-17T10:50:05.379Z,7.03
2023-01-17T10:55:34.503Z,7.06
2023-01-17T11:01:01.180Z,7.05
2023-01-17T11:06:28.098Z,7.06
2023-01-17T11:11:33.980Z,7.01
2023-01-17T11:16:37.481Z,7.02
2023-01-17T11:21:52.571Z,7.07
2023-01-17T11:26:57.842Z,7.09
2023-01-17T11:32:30.215Z,7.22
2023-01-17T11:37:35.591Z,7.40
2023-01-17T11:42:39.500Z,7.50
2023-01-17T11:47:43.016Z,7.72
2023-01-17T11:52:46.544Z,7.76
2023-01-17T11:57:51.485Z,7.69
2023-01-17T12:03:17.025Z,7.65
2023-01-17T12:08:23.086Z,7.65
2023-01-17T12:13:59.062Z,7.67
2023-01-17T12:19:23.260Z,7.71
2023-01-17T12:24:51.765Z,7.77
2023-01-17T12:30:12.795Z,7.88
2023-01-17T12:35:41.741Z,7.86
2023-01-17T12:40:53.820Z,7.70
2023-01-17T12:45:58.973Z,7.50
2023-01-17T12:51:18.567Z,7.46
2023-01-17T12:56:35.190Z,7.41
2023-01-17T13:01:43.378Z,7.45
2023-01-17T13:07:01.068Z,7.39
2023-01-17T13:12:17.209Z,7.28
2023-01-17T13:17:45.176Z,7.18
2023-01-17T13:22:51.208Z,7.12
2023-01-17T13:28:03.460Z,7.04
2023-01-17T13:33:28.282Z,6.91
2023-01-17T13:38:43.165Z,6.82
2023-01-17T13:44:06.536Z,6.81
2023-01-17T13:49:34.831Z,6.82
2023-01-17T13:54:45.104Z,6.81
2023-01-17T13:59:48.739Z,6.79
2023-01-17T14:05:12.416Z,6.77
2023-01-17T14:10:31.181Z,6.75
2023-01-17T14:15:47.500Z,6.69
2023-01-17T14:21:03.605Z,6.64
2023-01-17T14:26:32.014Z,6.56
2023-01-17T14:31:35.638Z,6.49
2023-01-17T14:36:39.551Z,6.44
2023-01-17T14:41:43.784Z,6.42
2023-01-17T14:46:49.193Z,6.41
2023-01-17T14:52:03.995Z,6.37
2023-01-17T14:57:25.770Z,6.32
2023-01-17T15:02:29.518Z,6.27
2023-01-17T15:07:33.412Z,6.24
2023-01-17T15:12:39.025Z,6.18
2023-01-17T15:17:42.395Z,6.13
2023-01-17T15:22:46.216Z,6.12
2023-01-17T15:27:49.933Z,6.10
2023-01-17T15:32:53.549Z,6.10
2023-01-17T15:37:58.516Z,6.10
2023-01-17T15:43:02.322Z,6.10
2023-01-17T15:48:37.067Z,6.10
2023-01-17T15:53:42.761Z,6.09
2023-01-17T15:58:51.076Z,6.04
2023-01-17T16:03:55.616Z,6.00
2023-01-17T16:08:59.123Z,5.93
2023-01-17T16:14:02.735Z,5.89
2023-01-17T16:19:06.770Z,5.85
2023-01-17T16:24:11.312Z,5.77
2023-01-17T16:29:14.822Z,5.65
2023-01-17T16:34:18.338Z,5.49
2023-01-17T16:39:21.849Z,5.33
2023-01-17T16:44:25.367Z,5.22
2023-01-17T16:49:32.708Z,5.09
2023-01-17T16:54:36.085Z,4.97
2023-01-17T16:59:50.113Z,4.92
2023-01-17T17:04:53.890Z,4.92
2023-01-17T17:09:57.382Z,4.99
2023-01-17T17:15:00.796Z,5.10
2023-01-17T17:20:06.171Z,5.21
2023-01-17T17:25:10.960Z,5.32
2023-01-17T17:30:15.042Z,5.41
2023-01-17T17:35:18.439Z,5.51
2023-01-17T17:40:22.232Z,5.57
2023-01-17T17:45:25.884Z,5.64
2023-01-17T17:50:29.305Z,5.64
2023-01-17T17:55:33.218Z,5.64
2023-01-17T18:00:36.631Z,5.64
2023-01-17T18:05:41.786Z,5.59
2023-01-17T18:10:46.434Z,5.54
2023-01-17T18:15:49.797Z,5.41
2023-01-17T18:20:53.573Z,5.24
2023-01-17T18:25:57.075Z,5.06
2023-01-17T18:31:06.782Z,4.88
2023-01-17T18:36:12.709Z,4.70
2023-01-17T18:41:21.962Z,4.54
2023-01-17T18:46:27.286Z,4.38
2023-01-17T18:51:32.806Z,4.26
2023-01-17T18:56:36.320Z,4.15
2023-01-17T19:01:43.932Z,4.10
2023-01-17T19:06:48.554Z,4.04
2023-01-17T19:11:52.069Z,3.98
2023-01-17T19:16:57.539Z,3.91
2023-01-17T19:22:00.939Z,3.85
2023-01-17T19:27:07.316Z,3.77
2023-01-17T19:32:11.962Z,3.69
2023-01-17T19:37:15.270Z,3.65
2023-01-17T19:42:19.404Z,3.62
2023-01-17T19:47:22.812Z,3.55
2023-01-17T19:52:26.645Z,3.47
2023-01-17T19:57:37.217Z,3.37
2023-01-17T20:02:40.886Z,3.29
2023-01-17T20:07:44.769Z,3.21
2023-01-17T20:12:48.277Z,3.13
2023-01-17T20:17:51.693Z,3.04
2023-01-17T20:22:55.726Z,2.97
2023-01-17T20:27:59.427Z,2.90
2023-01-17T20:33:03.482Z,2.83
2023-01-17T20:38:07.903Z,2.76
2023-01-17T20:43:12.355Z,2.68
2023-01-17T20:48:15.863Z,2.63
2023-01-17T20:53:19.680Z,2.58
2023-01-17T20:58:23.093Z,2.52
2023-01-17T21:03:33.468Z,2.46
2023-01-17T21:08:39.214Z,2.41
2023-01-17T21:13:43.469Z,2.37
2023-01-17T21:18:48.366Z,2.33
2023-01-17T21:23:54.207Z,2.28
2023-01-17T21:29:00.313Z,2.27
2023-01-17T21:34:06.774Z,2.23
2023-01-17T21:39:19.309Z,2.19
2023-01-17T21:44:24.024Z,2.14
2023-01-17T21:49:27.537Z,2.09
2023-01-17T21:54:50.096Z,2.05
2023-01-17T21:59:53.815Z,1.99
2023-01-17T22:04:57.342Z,1.93
2023-01-17T22:10:01.064Z,1.85
2023-01-17T22:15:05.191Z,1.74
2023-01-17T22:20:10.579Z,1.66
2023-01-17T22:25:14.057Z,1.57
2023-01-17T22:30:19.825Z,1.46
2023-01-17T22:35:23.959Z,1.38
2023-01-17T22:40:28.084Z,1.34
2023-01-17T22:45:31.601Z,1.30
2023-01-17T22:50:35.125Z,1.27
2023-01-17T22:55:38.630Z,1.26
2023-01-17T23:00:42.351Z,1.21
2023-01-17T23:05:47.003Z,1.13
2023-01-17T23:11:09.146Z,1.02
2023-01-17T23:16:31.403Z,0.98
2023-01-17T23:21:54.070Z,0.94
2023-01-17T23:27:16.013Z,0.85
2023-01-17T23:32:19.425Z,0.79
2023-01-17T23:37:47.211Z,0.73
2023-01-17T23:43:10.035Z,0.61
2023-01-17T23:48:14.316Z,0.52
2023-01-17T23:53:23.263Z,0.43
2023-01-17T23:58:28.106Z,0.35
